sensor_id;sensor_type;location;lat;lon;timestamp;pressure;altitude;pressure_sealevel;temperature;humidity
41898;BME280;27576;53.366;-1.498;2023-01-30T00:01:30;100456.13;;;5.77;100.00
41898;BME280;27576;53.366;-1.498;2023-01-30T00:03:56;100451.56;;;5.68;100.00
41898;BME280;27576;53.366;-1.498;2023-01-30T00:06:21;100462.63;;;5.65;100.00
41898;BME280;27576;53.366;-1.498;2023-01-30T00:08:47;100445.09;;;5.54;100.00
41898;BME280;27576;53.366;-1.498;2023-01-30T00:11:15;100459.72;;;5.55;100.00
41898;BME280;27576;53.366;-1.498;2023-01-30T00:13:41;100463.78;;;5.50;100.00
41898;BME280;27576;53.366;-1.498;2023-01-30T00:16:08;100438.22;;;5.27;100.00
41898;BME280;27576;53.366;-1.498;2023-01-30T00:18:34;100431.81;;;5.16;100.00
41898;BME280;27576;53.366;-1.498;2023-01-30T00:21:02;100462.25;;;5.29;100.00
41898;BME280;27576;53.366;-1.498;2023-01-30T00:23:28;100430.78;;;5.11;100.00
41898;BME280;27576;53.366;-1.498;2023-01-30T00:25:54;100420.19;;;5.02;100.00
41898;BME280;27576;53.366;-1.498;2023-01-30T00:28:20;100410.69;;;4.99;100.00
41898;BME280;27576;53.366;-1.498;2023-01-30T00:30:49;100459.56;;;5.26;100.00
41898;BME280;27576;53.366;-1.498;2023-01-30T00:33:16;100467.28;;;5.26;100.00
41898;BME280;27576;53.366;-1.498;2023-01-30T00:35:45;100459.63;;;5.28;100.00
41898;BME280;27576;53.366;-1.498;2023-01-30T00:38:11;100449.72;;;5.14;100.00
41898;BME280;27576;53.366;-1.498;2023-01-30T00:40:37;100452.53;;;5.21;100.00
41898;BME280;27576;53.366;-1.498;2023-01-30T00:43:02;100441.94;;;5.11;100.00
41898;BME280;27576;53.366;-1.498;2023-01-30T00:45:47;100439.53;;;5.16;100.00
41898;BME280;27576;53.366;-1.498;2023-01-30T00:48:31;100452.13;;;5.34;100.00
41898;BME280;27576;53.366;-1.498;2023-01-30T00:50:57;100460.69;;;5.34;100.00
41898;BME280;27576;53.366;-1.498;2023-01-30T00:53:22;100475.31;;;5.35;100.00
41898;BME280;27576;53.366;-1.498;2023-01-30T00:55:51;100445.56;;;5.18;100.00
41898;BME280;27576;53.366;-1.498;2023-01-30T00:58:17;100480.38;;;5.34;100.00
41898;BME280;27576;53.366;-1.498;2023-01-30T01:00:43;100471.75;;;5.32;100.00
41898;BME280;27576;53.366;-1.498;2023-01-30T01:03:08;100469.84;;;5.26;100.00
41898;BME280;27576;53.366;-1.498;2023-01-30T01:05:34;100486.94;;;5.26;100.00
41898;BME280;27576;53.366;-1.498;2023-01-30T01:07:59;100458.00;;;5.06;100.00
41898;BME280;27576;53.366;-1.498;2023-01-30T01:10:24;100495.44;;;5.23;100.00
41898;BME280;27576;53.366;-1.498;2023-01-30T01:12:50;100487.03;;;5.27;100.00
41898;BME280;27576;53.366;-1.498;2023-01-30T01:15:20;100502.59;;;5.32;100.00
41898;BME280;27576;53.366;-1.498;2023-01-30T01:17:46;100489.88;;;5.35;100.00
41898;BME280;27576;53.366;-1.498;2023-01-30T01:20:12;100488.06;;;5.32;100.00
41898;BME280;27576;53.366;-1.498;2023-01-30T01:22:38;100501.06;;;5.37;100.00
41898;BME280;27576;53.366;-1.498;2023-01-30T01:25:04;100494.09;;;5.34;100.00
41898;BME280;27576;53.366;-1.498;2023-01-30T01:27:30;100492.25;;;5.30;100.00
41898;BME280;27576;53.366;-1.498;2023-01-30T01:29:55;100463.25;;;5.09;100.00
41898;BME280;27576;53.366;-1.498;2023-01-30T01:32:21;100497.91;;;5.20;100.00
41898;BME280;27576;53.366;-1.498;2023-01-30T01:34:47;100481.22;;;5.09;100.00
41898;BME280;27576;53.366;-1.498;2023-01-30T01:37:12;100479.31;;;5.03;100.00
41898;BME280;27576;53.366;-1.498;2023-01-30T01:39:37;100481.78;;;5.00;100.00
41898;BME280;27576;53.366;-1.498;2023-01-30T01:42:24;100455.13;;;4.74;100.00
41898;BME280;27576;53.366;-1.498;2023-01-30T01:47:45;100485.31;;;4.80;100.00
41898;BME280;27576;53.366;-1.498;2023-01-30T01:50:16;100465.41;;;4.74;100.00
41898;BME280;27576;53.366;-1.498;2023-01-30T01:52:43;100490.31;;;4.77;100.00
41898;BME280;27576;53.366;-1.498;2023-01-30T01:55:10;100479.53;;;4.63;100.00
41898;BME280;27576;53.366;-1.498;2023-01-30T01:58:08;100461.97;;;4.51;100.00
41898;BME280;27576;53.366;-1.498;2023-01-30T02:00:32;100497.47;;;4.63;100.00
41898;BME280;27576;53.366;-1.498;2023-01-30T02:03:02;100493.31;;;4.65;100.00
41898;BME280;27576;53.366;-1.498;2023-01-30T02:05:32;100484.56;;;4.60;100.00
41898;BME280;27576;53.366;-1.498;2023-01-30T02:13:17;100467.09;;;4.51;100.00
41898;BME280;27576;53.366;-1.498;2023-01-30T02:15:43;100472.13;;;4.48;100.00
41898;BME280;27576;53.366;-1.498;2023-01-30T02:18:09;100493.88;;;4.58;100.00
41898;BME280;27576;53.366;-1.498;2023-01-30T02:25:58;100515.28;;;4.58;100.00
41898;BME280;27576;53.366;-1.498;2023-01-30T02:37:23;100496.28;;;4.53;100.00
41898;BME280;27576;53.366;-1.498;2023-01-30T02:42:51;100471.47;;;4.31;100.00
41898;BME280;27576;53.366;-1.498;2023-01-30T02:45:42;100474.09;;;4.33;100.00
41898;BME280;27576;53.366;-1.498;2023-01-30T02:48:16;100517.41;;;4.48;100.00
41898;BME280;27576;53.366;-1.498;2023-01-30T02:50:49;100533.19;;;4.57;100.00
41898;BME280;27576;53.366;-1.498;2023-01-30T02:53:16;100498.13;;;4.35;100.00
41898;BME280;27576;53.366;-1.498;2023-01-30T02:55:41;100513.25;;;4.50;100.00
41898;BME280;27576;53.366;-1.498;2023-01-30T02:58:07;100545.56;;;4.67;100.00
41898;BME280;27576;53.366;-1.498;2023-01-30T03:11:47;100556.59;;;4.64;100.00
41898;BME280;27576;53.366;-1.498;2023-01-30T03:17:03;100534.13;;;4.59;100.00
41898;BME280;27576;53.366;-1.498;2023-01-30T03:19:30;100530.50;;;4.54;100.00
41898;BME280;27576;53.366;-1.498;2023-01-30T03:21:56;100531.31;;;4.53;100.00
41898;BME280;27576;53.366;-1.498;2023-01-30T03:24:21;100537.50;;;4.58;100.00
41898;BME280;27576;53.366;-1.498;2023-01-30T03:26:56;100524.31;;;4.49;100.00
41898;BME280;27576;53.366;-1.498;2023-01-30T03:29:23;100519.06;;;4.46;100.00
41898;BME280;27576;53.366;-1.498;2023-01-30T03:31:48;100504.81;;;4.31;100.00
41898;BME280;27576;53.366;-1.498;2023-01-30T03:34:14;100557.22;;;4.59;100.00
41898;BME280;27576;53.366;-1.498;2023-01-30T03:36:39;100535.38;;;4.48;100.00
41898;BME280;27576;53.366;-1.498;2023-01-30T03:39:05;100575.66;;;4.71;100.00
41898;BME280;27576;53.366;-1.498;2023-01-30T03:41:30;100589.63;;;4.78;100.00
41898;BME280;27576;53.366;-1.498;2023-01-30T03:43:55;100547.13;;;4.63;100.00
41898;BME280;27576;53.366;-1.498;2023-01-30T03:46:21;100565.63;;;4.77;100.00
41898;BME280;27576;53.366;-1.498;2023-01-30T03:48:46;100542.28;;;4.71;100.00
41898;BME280;27576;53.366;-1.498;2023-01-30T03:51:11;100560.63;;;4.80;100.00
41898;BME280;27576;53.366;-1.498;2023-01-30T03:53:37;100579.97;;;4.95;100.00
41898;BME280;27576;53.366;-1.498;2023-01-30T03:56:02;100562.31;;;4.80;100.00
41898;BME280;27576;53.366;-1.498;2023-01-30T03:58:28;100558.94;;;4.81;100.00
41898;BME280;27576;53.366;-1.498;2023-01-30T04:00:55;100578.38;;;4.97;100.00
41898;BME280;27576;53.366;-1.498;2023-01-30T04:03:20;100579.28;;;4.99;100.00
41898;BME280;27576;53.366;-1.498;2023-01-30T04:05:45;100553.72;;;4.79;100.00
41898;BME280;27576;53.366;-1.498;2023-01-30T04:08:11;100566.16;;;4.91;100.00
41898;BME280;27576;53.366;-1.498;2023-01-30T04:10:36;100592.19;;;5.00;100.00
41898;BME280;27576;53.366;-1.498;2023-01-30T04:13:01;100583.34;;;4.92;100.00
41898;BME280;27576;53.366;-1.498;2023-01-30T04:15:27;100567.81;;;4.89;100.00
41898;BME280;27576;53.366;-1.498;2023-01-30T04:17:52;100587.59;;;4.91;100.00
41898;BME280;27576;53.366;-1.498;2023-01-30T04:20:17;100588.63;;;4.97;100.00
41898;BME280;27576;53.366;-1.498;2023-01-30T04:22:44;100607.72;;;5.03;100.00
41898;BME280;27576;53.366;-1.498;2023-01-30T04:25:10;100614.63;;;5.04;100.00
41898;BME280;27576;53.366;-1.498;2023-01-30T04:27:35;100596.22;;;4.93;100.00
41898;BME280;27576;53.366;-1.498;2023-01-30T04:30:01;100528.69;;;4.51;100.00
41898;BME280;27576;53.366;-1.498;2023-01-30T04:32:26;100581.22;;;4.82;100.00
41898;BME280;27576;53.366;-1.498;2023-01-30T04:34:51;100606.63;;;4.97;100.00
41898;BME280;27576;53.366;-1.498;2023-01-30T04:37:16;100610.09;;;4.99;100.00
41898;BME280;27576;53.366;-1.498;2023-01-30T04:39:42;100598.28;;;4.80;100.00
41898;BME280;27576;53.366;-1.498;2023-01-30T04:42:07;100611.50;;;4.90;100.00
41898;BME280;27576;53.366;-1.498;2023-01-30T04:44:33;100617.19;;;5.04;100.00
41898;BME280;27576;53.366;-1.498;2023-01-30T04:46:58;100623.88;;;5.01;100.00
41898;BME280;27576;53.366;-1.498;2023-01-30T04:49:23;100604.56;;;4.88;100.00
41898;BME280;27576;53.366;-1.498;2023-01-30T04:51:49;100594.00;;;4.80;100.00
41898;BME280;27576;53.366;-1.498;2023-01-30T04:54:14;100595.78;;;4.83;100.00
41898;BME280;27576;53.366;-1.498;2023-01-30T04:56:39;100623.88;;;5.01;100.00
41898;BME280;27576;53.366;-1.498;2023-01-30T04:59:05;100615.06;;;4.94;100.00
41898;BME280;27576;53.366;-1.498;2023-01-30T05:01:33;100626.59;;;5.04;100.00
41898;BME280;27576;53.366;-1.498;2023-01-30T05:03:59;100610.88;;;4.96;100.00
41898;BME280;27576;53.366;-1.498;2023-01-30T05:06:25;100629.16;;;5.04;100.00
41898;BME280;27576;53.366;-1.498;2023-01-30T05:08:52;100637.03;;;5.08;100.00
41898;BME280;27576;53.366;-1.498;2023-01-30T05:11:18;100637.78;;;5.06;100.00
41898;BME280;27576;53.366;-1.498;2023-01-30T05:13:44;100651.44;;;5.05;100.00
41898;BME280;27576;53.366;-1.498;2023-01-30T05:16:11;100619.31;;;4.93;100.00
41898;BME280;27576;53.366;-1.498;2023-01-30T05:18:36;100638.59;;;5.05;100.00
41898;BME280;27576;53.366;-1.498;2023-01-30T05:21:07;100589.75;;;4.81;100.00
41898;BME280;27576;53.366;-1.498;2023-01-30T05:23:32;100614.03;;;4.89;100.00
41898;BME280;27576;53.366;-1.498;2023-01-30T05:25:58;100636.91;;;5.05;100.00
41898;BME280;27576;53.366;-1.498;2023-01-30T05:28:24;100614.06;;;4.90;100.00
41898;BME280;27576;53.366;-1.498;2023-01-30T05:30:49;100612.19;;;4.86;100.00
41898;BME280;27576;53.366;-1.498;2023-01-30T05:33:15;100639.28;;;5.01;100.00
41898;BME280;27576;53.366;-1.498;2023-01-30T05:35:48;100616.41;;;4.84;100.00
41898;BME280;27576;53.366;-1.498;2023-01-30T05:38:14;100645.66;;;4.88;100.00
41898;BME280;27576;53.366;-1.498;2023-01-30T05:40:39;100652.34;;;4.84;100.00
41898;BME280;27576;53.366;-1.498;2023-01-30T05:43:05;100648.47;;;4.73;100.00
41898;BME280;27576;53.366;-1.498;2023-01-30T05:45:30;100689.47;;;4.92;100.00
41898;BME280;27576;53.366;-1.498;2023-01-30T05:47:55;100680.91;;;4.92;100.00
41898;BME280;27576;53.366;-1.498;2023-01-30T05:50:21;100664.94;;;4.78;100.00
41898;BME280;27576;53.366;-1.498;2023-01-30T05:52:46;100684.22;;;4.89;100.00
41898;BME280;27576;53.366;-1.498;2023-01-30T05:55:11;100672.19;;;4.88;100.00
41898;BME280;27576;53.366;-1.498;2023-01-30T05:57:37;100694.81;;;4.97;100.00
41898;BME280;27576;53.366;-1.498;2023-01-30T06:00:03;100697.41;;;4.99;100.00
41898;BME280;27576;53.366;-1.498;2023-01-30T06:02:29;100647.44;;;4.68;100.00
41898;BME280;27576;53.366;-1.498;2023-01-30T06:04:55;100695.22;;;4.87;100.00
41898;BME280;27576;53.366;-1.498;2023-01-30T06:07:20;100711.81;;;4.95;100.00
41898;BME280;27576;53.366;-1.498;2023-01-30T06:09:46;100711.91;;;4.97;100.00
41898;BME280;27576;53.366;-1.498;2023-01-30T06:12:11;100719.78;;;5.01;100.00
41898;BME280;27576;53.366;-1.498;2023-01-30T06:14:36;100724.97;;;5.03;100.00
41898;BME280;27576;53.366;-1.498;2023-01-30T06:17:02;100700.44;;;4.88;100.00
41898;BME280;27576;53.366;-1.498;2023-01-30T06:19:27;100694.53;;;4.91;100.00
41898;BME280;27576;53.366;-1.498;2023-01-30T06:21:52;100670.34;;;4.84;100.00
41898;BME280;27576;53.366;-1.498;2023-01-30T06:24:18;100669.19;;;4.78;100.00
41898;BME280;27576;53.366;-1.498;2023-01-30T06:26:43;100680.91;;;4.92;100.00
41898;BME280;27576;53.366;-1.498;2023-01-30T06:29:08;100687.97;;;4.98;100.00
41898;BME280;27576;53.366;-1.498;2023-01-30T06:31:34;100664.94;;;4.78;100.00
41898;BME280;27576;53.366;-1.498;2023-01-30T06:33:59;100685.03;;;4.88;100.00
41898;BME280;27576;53.366;-1.498;2023-01-30T06:36:24;100709.47;;;5.00;100.00
41898;BME280;27576;53.366;-1.498;2023-01-30T06:38:50;100701.13;;;4.84;100.00
41898;BME280;27576;53.366;-1.498;2023-01-30T06:41:15;100702.19;;;4.89;100.00
41898;BME280;27576;53.366;-1.498;2023-01-30T06:43:41;100690.34;;;4.93;100.00
41898;BME280;27576;53.366;-1.498;2023-01-30T06:46:06;100681.53;;;4.86;100.00
41898;BME280;27576;53.366;-1.498;2023-01-30T06:48:31;100682.28;;;4.84;100.00
41898;BME280;27576;53.366;-1.498;2023-01-30T06:50:57;100674.19;;;4.75;100.00
41898;BME280;27576;53.366;-1.498;2023-01-30T06:53:22;100666.50;;;4.75;100.00
41898;BME280;27576;53.366;-1.498;2023-01-30T06:55:54;100679.66;;;4.82;100.00
41898;BME280;27576;53.366;-1.498;2023-01-30T06:58:19;100677.53;;;4.72;100.00
41898;BME280;27576;53.366;-1.498;2023-01-30T07:00:45;100668.97;;;4.72;100.00
41898;BME280;27576;53.366;-1.498;2023-01-30T07:03:16;100701.38;;;4.90;100.00
41898;BME280;27576;53.366;-1.498;2023-01-30T07:05:43;100689.41;;;4.91;100.00
41898;BME280;27576;53.366;-1.498;2023-01-30T07:08:09;100631.81;;;4.63;100.00
41898;BME280;27576;53.366;-1.498;2023-01-30T07:10:34;100677.22;;;4.85;100.00
41898;BME280;27576;53.366;-1.498;2023-01-30T07:13:01;100687.31;;;4.81;100.00
41898;BME280;27576;53.366;-1.498;2023-01-30T07:15:26;100687.91;;;4.75;100.00
41898;BME280;27576;53.366;-1.498;2023-01-30T07:17:51;100699.09;;;4.76;100.00
41898;BME280;27576;53.366;-1.498;2023-01-30T07:20:17;100667.38;;;4.54;100.00
41898;BME280;27576;53.366;-1.498;2023-01-30T07:22:48;100698.03;;;4.51;100.00
41898;BME280;27576;53.366;-1.498;2023-01-30T07:25:14;100680.09;;;4.51;100.00
41898;BME280;27576;53.366;-1.498;2023-01-30T07:27:39;100707.94;;;4.63;100.00
41898;BME280;27576;53.366;-1.498;2023-01-30T07:30:05;100722.56;;;4.64;100.00
41898;BME280;27576;53.366;-1.498;2023-01-30T07:32:31;100703.69;;;4.42;100.00
41898;BME280;27576;53.366;-1.498;2023-01-30T07:34:56;100734.06;;;4.53;100.00
41898;BME280;27576;53.366;-1.498;2023-01-30T07:37:21;100722.94;;;4.33;100.00
41898;BME280;27576;53.366;-1.498;2023-01-30T07:39:47;100739.75;;;4.46;100.00
41898;BME280;27576;53.366;-1.498;2023-01-30T07:42:12;100735.34;;;4.43;100.00
41898;BME280;27576;53.366;-1.498;2023-01-30T07:44:38;100739.28;;;4.56;100.00
41898;BME280;27576;53.366;-1.498;2023-01-30T07:47:03;100692.22;;;4.34;100.00
41898;BME280;27576;53.366;-1.498;2023-01-30T07:49:28;100720.72;;;4.40;100.00
41898;BME280;27576;53.366;-1.498;2023-01-30T07:51:54;100731.91;;;4.42;100.00
41898;BME280;27576;53.366;-1.498;2023-01-30T07:54:19;100724.75;;;4.35;100.00
41898;BME280;27576;53.366;-1.498;2023-01-30T07:56:45;100722.31;;;4.38;100.00
41898;BME280;27576;53.366;-1.498;2023-01-30T07:59:10;100723.53;;;4.47;100.00
41898;BME280;27576;53.366;-1.498;2023-01-30T08:01:36;100712.34;;;4.45;100.00
41898;BME280;27576;53.366;-1.498;2023-01-30T08:04:02;100714.00;;;4.44;100.00
41898;BME280;27576;53.366;-1.498;2023-01-30T08:06:27;100730.41;;;4.48;100.00
41898;BME280;27576;53.366;-1.498;2023-01-30T08:08:52;100719.66;;;4.56;100.00
41898;BME280;27576;53.366;-1.498;2023-01-30T08:11:18;100709.88;;;4.48;100.00
41898;BME280;27576;53.366;-1.498;2023-01-30T08:13:43;100719.53;;;4.53;100.00
41898;BME280;27576;53.366;-1.498;2023-01-30T08:16:08;100720.22;;;4.49;100.00
41898;BME280;27576;53.366;-1.498;2023-01-30T08:18:34;100746.53;;;4.64;100.00
41898;BME280;27576;53.366;-1.498;2023-01-30T08:21:02;100750.72;;;4.62;100.00
41898;BME280;27576;53.366;-1.498;2023-01-30T08:23:28;100732.09;;;4.47;100.00
41898;BME280;27576;53.366;-1.498;2023-01-30T08:25:58;100767.66;;;4.59;100.00
41898;BME280;27576;53.366;-1.498;2023-01-30T08:28:25;100743.13;;;4.45;100.00
41898;BME280;27576;53.366;-1.498;2023-01-30T08:30:51;100750.81;;;4.45;100.00
41898;BME280;27576;53.366;-1.498;2023-01-30T08:33:22;100791.84;;;4.64;100.00
41898;BME280;27576;53.366;-1.498;2023-01-30T08:35:48;100769.03;;;4.51;100.00
41898;BME280;27576;53.366;-1.498;2023-01-30T08:38:14;100791.97;;;4.67;100.00
41898;BME280;27576;53.366;-1.498;2023-01-30T08:40:39;100809.16;;;4.68;100.00
41898;BME280;27576;53.366;-1.498;2023-01-30T08:43:05;100793.59;;;4.65;100.00
41898;BME280;27576;53.366;-1.498;2023-01-30T08:45:31;100756.63;;;4.40;100.00
41898;BME280;27576;53.366;-1.498;2023-01-30T08:48:01;100790.91;;;4.62;100.00
41898;BME280;27576;53.366;-1.498;2023-01-30T08:50:27;100783.34;;;4.65;100.00
41898;BME280;27576;53.366;-1.498;2023-01-30T08:52:53;100813.78;;;4.77;100.00
41898;BME280;27576;53.366;-1.498;2023-01-30T08:55:19;100789.72;;;4.75;100.00
41898;BME280;27576;53.366;-1.498;2023-01-30T08:57:45;100800.88;;;4.75;100.00
41898;BME280;27576;53.366;-1.498;2023-01-30T09:00:11;100800.28;;;4.81;100.00
41898;BME280;27576;53.366;-1.498;2023-01-30T09:02:37;100807.88;;;4.79;100.00
41898;BME280;27576;53.366;-1.498;2023-01-30T09:05:03;100793.06;;;4.72;100.00
41898;BME280;27576;53.366;-1.498;2023-01-30T09:07:29;100812.16;;;4.79;100.00
41898;BME280;27576;53.366;-1.498;2023-01-30T09:09:54;100803.88;;;4.65;100.00
41898;BME280;27576;53.366;-1.498;2023-01-30T09:12:20;100827.63;;;4.80;100.00
41898;BME280;27576;53.366;-1.498;2023-01-30T09:14:45;100826.88;;;4.83;100.00
41898;BME280;27576;53.366;-1.498;2023-01-30T09:17:11;100807.00;;;4.79;100.00
41898;BME280;27576;53.366;-1.498;2023-01-30T09:19:37;100821.69;;;4.81;100.00
41898;BME280;27576;53.366;-1.498;2023-01-30T09:22:02;100833.69;;;4.82;100.00
41898;BME280;27576;53.366;-1.498;2023-01-30T09:24:28;100729.78;;;4.13;100.00
41898;BME280;27576;53.366;-1.498;2023-01-30T09:26:54;100857.75;;;4.84;100.00
41898;BME280;27576;53.366;-1.498;2023-01-30T09:29:22;100826.69;;;4.78;100.00
41898;BME280;27576;53.366;-1.498;2023-01-30T09:31:48;100867.22;;;4.85;100.00
41898;BME280;27576;53.366;-1.498;2023-01-30T09:34:14;100861.19;;;4.85;100.00
41898;BME280;27576;53.366;-1.498;2023-01-30T09:36:39;100823.03;;;4.73;100.00
41898;BME280;27576;53.366;-1.498;2023-01-30T09:39:05;100842.91;;;4.77;100.00
41898;BME280;27576;53.366;-1.498;2023-01-30T09:47:10;100796.44;;;4.52;100.00
41898;BME280;27576;53.366;-1.498;2023-01-30T09:50:31;100868.38;;;4.92;100.00
41898;BME280;27576;53.366;-1.498;2023-01-30T09:55:25;100797.25;;;4.70;100.00
41898;BME280;27576;53.366;-1.498;2023-01-30T09:57:56;100845.44;;;4.97;100.00
41898;BME280;27576;53.366;-1.498;2023-01-30T10:00:50;100843.00;;;5.00;100.00
41898;BME280;27576;53.366;-1.498;2023-01-30T10:03:18;100857.59;;;5.01;100.00
41898;BME280;27576;53.366;-1.498;2023-01-30T10:05:58;100861.00;;;5.00;100.00
41898;BME280;27576;53.366;-1.498;2023-01-30T10:08:51;100868.06;;;5.05;100.00
41898;BME280;27576;53.366;-1.498;2023-01-30T10:25:30;100900.28;;;5.18;100.00
41898;BME280;27576;53.366;-1.498;2023-01-30T10:28:05;100859.47;;;5.05;100.00
41898;BME280;27576;53.366;-1.498;2023-01-30T10:30:34;100866.50;;;5.09;100.00
41898;BME280;27576;53.366;-1.498;2023-01-30T10:33:07;100898.13;;;5.27;100.00
41898;BME280;27576;53.366;-1.498;2023-01-30T10:35:40;100886.50;;;5.16;100.00
41898;BME280;27576;53.366;-1.498;2023-01-30T10:38:19;100928.38;;;5.34;100.00
41898;BME280;27576;53.366;-1.498;2023-01-30T10:43:41;100915.66;;;5.37;100.00
41898;BME280;27576;53.366;-1.498;2023-01-30T10:48:50;100896.28;;;5.25;100.00
41898;BME280;27576;53.366;-1.498;2023-01-30T10:59:27;100914.59;;;5.32;100.00
41898;BME280;27576;53.366;-1.498;2023-01-30T11:02:11;100959.16;;;5.54;100.00
41898;BME280;27576;53.366;-1.498;2023-01-30T11:04:51;100959.06;;;5.51;100.00
41898;BME280;27576;53.366;-1.498;2023-01-30T11:07:20;100942.63;;;5.47;100.00
41898;BME280;27576;53.366;-1.498;2023-01-30T11:09:47;100960.13;;;5.56;100.00
41898;BME280;27576;53.366;-1.498;2023-01-30T11:12:13;100975.13;;;5.66;100.00
41898;BME280;27576;53.366;-1.498;2023-01-30T11:14:59;100985.72;;;5.74;100.00
41898;BME280;27576;53.366;-1.498;2023-01-30T11:17:43;100978.78;;;5.71;100.00
41898;BME280;27576;53.366;-1.498;2023-01-30T11:20:21;100960.78;;;5.71;100.00
41898;BME280;27576;53.366;-1.498;2023-01-30T11:23:03;100978.53;;;5.86;100.00
41898;BME280;27576;53.366;-1.498;2023-01-30T11:25:28;100990.63;;;5.88;100.00
41898;BME280;27576;53.366;-1.498;2023-01-30T11:27:59;100959.38;;;5.79;100.00
41898;BME280;27576;53.366;-1.498;2023-01-30T11:30:43;100942.94;;;5.76;100.00
41898;BME280;27576;53.366;-1.498;2023-01-30T11:33:16;100939.94;;;5.86;100.00
41898;BME280;27576;53.366;-1.498;2023-01-30T11:36:02;100961.41;;;6.07;100.00
41898;BME280;27576;53.366;-1.498;2023-01-30T11:38:35;100921.16;;;5.88;100.00
41898;BME280;27576;53.366;-1.498;2023-01-30T11:41:21;100918.72;;;5.91;100.00
41898;BME280;27576;53.366;-1.498;2023-01-30T11:43:48;100924.03;;;5.95;100.00
41898;BME280;27576;53.366;-1.498;2023-01-30T11:46:17;100953.28;;;6.19;100.00
41898;BME280;27576;53.366;-1.498;2023-01-30T11:48:53;100963.72;;;6.22;100.00
41898;BME280;27576;53.366;-1.498;2023-01-30T11:51:21;100959.41;;;6.21;100.00
41898;BME280;27576;53.366;-1.498;2023-01-30T11:54:03;100958.44;;;6.19;100.00
41898;BME280;27576;53.366;-1.498;2023-01-30T11:56:45;100981.06;;;6.28;100.00
41898;BME280;27576;53.366;-1.498;2023-01-30T12:01:41;100947.16;;;6.15;100.00
41898;BME280;27576;53.366;-1.498;2023-01-30T12:04:10;100970.94;;;6.32;100.00
41898;BME280;27576;53.366;-1.498;2023-01-30T12:06:39;100947.22;;;6.17;100.00
41898;BME280;27576;53.366;-1.498;2023-01-30T12:09:06;100970.16;;;6.33;100.00
41898;BME280;27576;53.366;-1.498;2023-01-30T12:11:51;100984.06;;;6.38;100.00
41898;BME280;27576;53.366;-1.498;2023-01-30T12:14:19;100980.09;;;6.47;100.00
41898;BME280;27576;53.366;-1.498;2023-01-30T12:16:56;100974.91;;;6.45;100.00
41898;BME280;27576;53.366;-1.498;2023-01-30T12:19:45;100990.69;;;6.54;100.00
41898;BME280;27576;53.366;-1.498;2023-01-30T12:22:37;100990.88;;;6.59;100.00
41898;BME280;27576;53.366;-1.498;2023-01-30T12:28:23;100977.69;;;6.51;100.00
41898;BME280;27576;53.366;-1.498;2023-01-30T12:30:55;100991.56;;;6.55;100.00
41898;BME280;27576;53.366;-1.498;2023-01-30T12:33:25;100994.84;;;6.73;100.00
41898;BME280;27576;53.366;-1.498;2023-01-30T12:38:44;101011.88;;;6.92;100.00
41898;BME280;27576;53.366;-1.498;2023-01-30T12:47:00;100998.00;;;9.27;100.00
41898;BME280;27576;53.366;-1.498;2023-01-30T12:50:05;101009.59;;;10.43;92.92
41898;BME280;27576;53.366;-1.498;2023-01-30T12:58:31;101007.84;;;12.80;90.83
41898;BME280;27576;53.366;-1.498;2023-01-30T13:03:49;101011.53;;;13.68;70.46
41898;BME280;27576;53.366;-1.498;2023-01-30T13:12:12;101007.06;;;14.60;64.59
41898;BME280;27576;53.366;-1.498;2023-01-30T13:17:40;101011.84;;;15.75;62.04
41898;BME280;27576;53.366;-1.498;2023-01-30T13:25:46;100995.09;;;17.15;64.61
41898;BME280;27576;53.366;-1.498;2023-01-30T13:28:24;100984.47;;;17.42;64.13
41898;BME280;27576;53.366;-1.498;2023-01-30T13:30:51;100983.59;;;17.39;64.33
41898;BME280;27576;53.366;-1.498;2023-01-30T13:33:24;100987.88;;;17.57;57.90
41898;BME280;27576;53.366;-1.498;2023-01-30T13:36:02;100976.66;;;17.32;55.10
41898;BME280;27576;53.366;-1.498;2023-01-30T13:38:32;100938.38;;;17.08;62.93
41898;BME280;27576;53.366;-1.498;2023-01-30T13:40:59;100973.28;;;17.11;61.86
41898;BME280;27576;53.366;-1.498;2023-01-30T13:43:29;100984.66;;;17.01;58.66
41898;BME280;27576;53.366;-1.498;2023-01-30T13:45:59;100977.88;;;16.33;55.38
41898;BME280;27576;53.366;-1.498;2023-01-30T13:53:49;100999.50;;;15.25;59.82
41898;BME280;27576;53.366;-1.498;2023-01-30T13:56:24;101003.06;;;15.51;64.82
41898;BME280;27576;53.366;-1.498;2023-01-30T13:58:57;101008.31;;;15.57;60.10
41898;BME280;27576;53.366;-1.498;2023-01-30T14:09:39;101004.84;;;15.61;57.82
41898;BME280;27576;53.366;-1.498;2023-01-30T14:12:16;100990.94;;;15.67;57.35
41898;BME280;27576;53.366;-1.498;2023-01-30T14:14:56;100996.19;;;16.14;57.65
41898;BME280;27576;53.366;-1.498;2023-01-30T14:17:23;100993.56;;;16.47;58.75
41898;BME280;27576;53.366;-1.498;2023-01-30T14:20:00;100991.75;;;16.73;52.87
41898;BME280;27576;53.366;-1.498;2023-01-30T14:22:33;100995.25;;;16.57;56.46
41898;BME280;27576;53.366;-1.498;2023-01-30T14:27:48;100956.72;;;14.80;60.86
41898;BME280;27576;53.366;-1.498;2023-01-30T14:30:49;100988.38;;;14.02;60.63
41898;BME280;27576;53.366;-1.498;2023-01-30T14:38:19;101019.75;;;12.06;63.83
41898;BME280;27576;53.366;-1.498;2023-01-30T14:43:33;101000.41;;;10.98;69.37
41898;BME280;27576;53.366;-1.498;2023-01-30T14:46:00;101007.34;;;10.58;69.09
41898;BME280;27576;53.366;-1.498;2023-01-30T14:51:29;100999.81;;;9.96;72.29
41898;BME280;27576;53.366;-1.498;2023-01-30T14:59:07;101007.25;;;9.19;74.58
41898;BME280;27576;53.366;-1.498;2023-01-30T15:04:21;101012.16;;;8.80;77.96
41898;BME280;27576;53.366;-1.498;2023-01-30T15:06:47;101038.19;;;8.86;78.61
41898;BME280;27576;53.366;-1.498;2023-01-30T15:09:22;101005.56;;;8.61;80.47
41898;BME280;27576;53.366;-1.498;2023-01-30T15:12:25;101052.25;;;8.67;81.98
41898;BME280;27576;53.366;-1.498;2023-01-30T15:15:20;101062.16;;;8.53;83.56
41898;BME280;27576;53.366;-1.498;2023-01-30T15:18:12;101066.94;;;8.41;82.84